sensor_id;sensor_type;location;lat;lon;timestamp;temperature;humidity
27900;DHT22;15243;50.726;7.080;2023-07-29T00:02:06;18.20;99.90
27900;DHT22;15243;50.726;7.080;2023-07-29T00:04:33;18.20;99.90
27900;DHT22;15243;50.726;7.080;2023-07-29T00:07:00;18.30;99.90
27900;DHT22;15243;50.726;7.080;2023-07-29T00:09:27;18.40;99.90
27900;DHT22;15243;50.726;7.080;2023-07-29T00:11:54;18.30;99.90
27900;DHT22;15243;50.726;7.080;2023-07-29T00:14:20;18.30;99.90
27900;DHT22;15243;50.726;7.080;2023-07-29T00:16:47;18.30;99.90
27900;DHT22;15243;50.726;7.080;2023-07-29T00:19:14;18.30;99.90
27900;DHT22;15243;50.726;7.080;2023-07-29T00:21:42;18.30;99.90
27900;DHT22;15243;50.726;7.080;2023-07-29T00:24:09;18.30;99.90
27900;DHT22;15243;50.726;7.080;2023-07-29T00:26:36;18.30;99.90
27900;DHT22;15243;50.726;7.080;2023-07-29T00:29:03;18.40;99.90
27900;DHT22;15243;50.726;7.080;2023-07-29T00:31:30;18.60;99.90
27900;DHT22;15243;50.726;7.080;2023-07-29T00:33:57;18.70;99.90
27900;DHT22;15243;50.726;7.080;2023-07-29T00:36:27;18.70;99.90
27900;DHT22;15243;50.726;7.080;2023-07-29T00:38:54;18.60;99.90
27900;DHT22;15243;50.726;7.080;2023-07-29T00:41:24;18.70;99.90
27900;DHT22;15243;50.726;7.080;2023-07-29T00:43:52;18.80;99.90
27900;DHT22;15243;50.726;7.080;2023-07-29T00:46:20;18.80;99.90
27900;DHT22;15243;50.726;7.080;2023-07-29T00:48:47;18.70;99.90
27900;DHT22;15243;50.726;7.080;2023-07-29T00:51:15;18.70;99.90
27900;DHT22;15243;50.726;7.080;2023-07-29T00:53:42;18.70;99.90
27900;DHT22;15243;50.726;7.080;2023-07-29T00:56:09;18.60;99.90
27900;DHT22;15243;50.726;7.080;2023-07-29T00:58:36;18.70;99.90
27900;DHT22;15243;50.726;7.080;2023-07-29T01:01:03;18.60;99.90
27900;DHT22;15243;50.726;7.080;2023-07-29T01:03:31;18.60;99.90
27900;DHT22;15243;50.726;7.080;2023-07-29T01:06:40;18.60;99.90
27900;DHT22;15243;50.726;7.080;2023-07-29T01:15:01;18.70;99.90
27900;DHT22;15243;50.726;7.080;2023-07-29T01:17:40;18.80;99.90
27900;DHT22;15243;50.726;7.080;2023-07-29T01:20:11;18.80;99.90
27900;DHT22;15243;50.726;7.080;2023-07-29T01:22:40;18.80;99.90
27900;DHT22;15243;50.726;7.080;2023-07-29T01:25:09;18.80;99.90
27900;DHT22;15243;50.726;7.080;2023-07-29T01:27:36;18.80;99.90
27900;DHT22;15243;50.726;7.080;2023-07-29T01:30:03;18.90;99.90
27900;DHT22;15243;50.726;7.080;2023-07-29T01:38:05;18.90;99.90
27900;DHT22;15243;50.726;7.080;2023-07-29T01:40:33;18.90;99.90
27900;DHT22;15243;50.726;7.080;2023-07-29T01:43:01;19.00;99.90
27900;DHT22;15243;50.726;7.080;2023-07-29T01:45:28;19.00;99.90
27900;DHT22;15243;50.726;7.080;2023-07-29T01:47:58;19.00;99.90
27900;DHT22;15243;50.726;7.080;2023-07-29T01:50:25;19.00;99.90
27900;DHT22;15243;50.726;7.080;2023-07-29T01:52:52;19.10;99.90
27900;DHT22;15243;50.726;7.080;2023-07-29T01:55:19;19.10;99.90
27900;DHT22;15243;50.726;7.080;2023-07-29T01:57:46;19.10;99.90
27900;DHT22;15243;50.726;7.080;2023-07-29T02:00:14;19.10;99.90
27900;DHT22;15243;50.726;7.080;2023-07-29T02:02:41;19.10;99.90
27900;DHT22;15243;50.726;7.080;2023-07-29T02:05:08;19.20;99.90
27900;DHT22;15243;50.726;7.080;2023-07-29T02:07:35;19.10;99.90
27900;DHT22;15243;50.726;7.080;2023-07-29T02:10:02;19.10;99.90
27900;DHT22;15243;50.726;7.080;2023-07-29T02:12:29;19.10;99.90
27900;DHT22;15243;50.726;7.080;2023-07-29T02:14:56;19.00;99.90
27900;DHT22;15243;50.726;7.080;2023-07-29T02:17:23;19.00;99.90
27900;DHT22;15243;50.726;7.080;2023-07-29T02:19:50;18.90;99.90
27900;DHT22;15243;50.726;7.080;2023-07-29T02:22:18;19.00;99.90
27900;DHT22;15243;50.726;7.080;2023-07-29T02:24:45;19.10;99.90
27900;DHT22;15243;50.726;7.080;2023-07-29T02:27:12;19.00;99.90
27900;DHT22;15243;50.726;7.080;2023-07-29T02:29:39;19.10;99.90
27900;DHT22;15243;50.726;7.080;2023-07-29T02:32:06;19.10;99.90
27900;DHT22;15243;50.726;7.080;2023-07-29T02:34:33;19.10;99.90
27900;DHT22;15243;50.726;7.080;2023-07-29T02:37:00;19.10;99.90
27900;DHT22;15243;50.726;7.080;2023-07-29T02:39:27;19.20;99.90
27900;DHT22;15243;50.726;7.080;2023-07-29T02:41:54;19.10;99.90
27900;DHT22;15243;50.726;7.080;2023-07-29T02:44:23;19.10;99.90
27900;DHT22;15243;50.726;7.080;2023-07-29T02:46:50;19.20;99.90
27900;DHT22;15243;50.726;7.080;2023-07-29T02:49:19;19.20;99.90
27900;DHT22;15243;50.726;7.080;2023-07-29T02:51:46;19.20;99.90
27900;DHT22;15243;50.726;7.080;2023-07-29T02:54:13;19.10;99.90
27900;DHT22;15243;50.726;7.080;2023-07-29T02:56:40;19.10;99.90
27900;DHT22;15243;50.726;7.080;2023-07-29T02:59:07;19.20;99.90
27900;DHT22;15243;50.726;7.080;2023-07-29T03:01:34;19.20;99.90
27900;DHT22;15243;50.726;7.080;2023-07-29T03:04:01;19.10;99.90
27900;DHT22;15243;50.726;7.080;2023-07-29T03:06:28;19.20;99.90
27900;DHT22;15243;50.726;7.080;2023-07-29T03:08:55;19.30;99.90
27900;DHT22;15243;50.726;7.080;2023-07-29T03:11:22;19.20;99.90
27900;DHT22;15243;50.726;7.080;2023-07-29T03:13:49;19.10;99.90
27900;DHT22;15243;50.726;7.080;2023-07-29T03:16:17;19.00;99.90
27900;DHT22;15243;50.726;7.080;2023-07-29T03:18:44;18.90;99.90
27900;DHT22;15243;50.726;7.080;2023-07-29T03:21:12;18.80;99.90
27900;DHT22;15243;50.726;7.080;2023-07-29T03:23:39;18.90;99.90
27900;DHT22;15243;50.726;7.080;2023-07-29T03:26:06;18.70;99.90
27900;DHT22;15243;50.726;7.080;2023-07-29T03:28:39;18.60;99.90
27900;DHT22;15243;50.726;7.080;2023-07-29T03:31:07;18.50;99.90
27900;DHT22;15243;50.726;7.080;2023-07-29T03:33:34;18.50;99.90
27900;DHT22;15243;50.726;7.080;2023-07-29T03:36:02;18.50;99.90
27900;DHT22;15243;50.726;7.080;2023-07-29T03:38:29;18.40;99.90
27900;DHT22;15243;50.726;7.080;2023-07-29T03:40:56;18.40;99.90
27900;DHT22;15243;50.726;7.080;2023-07-29T03:43:25;18.40;99.90
27900;DHT22;15243;50.726;7.080;2023-07-29T03:45:52;18.40;99.90
27900;DHT22;15243;50.726;7.080;2023-07-29T03:48:19;18.30;99.90
27900;DHT22;15243;50.726;7.080;2023-07-29T03:50:46;18.30;99.90
27900;DHT22;15243;50.726;7.080;2023-07-29T03:53:13;18.20;99.90
27900;DHT22;15243;50.726;7.080;2023-07-29T03:55:41;18.20;99.90
27900;DHT22;15243;50.726;7.080;2023-07-29T03:58:08;18.20;99.90
27900;DHT22;15243;50.726;7.080;2023-07-29T04:00:35;18.10;99.90
27900;DHT22;15243;50.726;7.080;2023-07-29T04:03:02;18.10;99.90
27900;DHT22;15243;50.726;7.080;2023-07-29T04:05:30;18.00;99.90
27900;DHT22;15243;50.726;7.080;2023-07-29T04:07:57;18.00;99.90
27900;DHT22;15243;50.726;7.080;2023-07-29T04:10:25;18.00;99.90
27900;DHT22;15243;50.726;7.080;2023-07-29T04:12:53;18.00;99.90
27900;DHT22;15243;50.726;7.080;2023-07-29T04:15:20;18.00;99.90
27900;DHT22;15243;50.726;7.080;2023-07-29T04:17:47;18.00;99.90
27900;DHT22;15243;50.726;7.080;2023-07-29T04:20:14;18.00;99.90
27900;DHT22;15243;50.726;7.080;2023-07-29T04:22:41;18.00;99.90
27900;DHT22;15243;50.726;7.080;2023-07-29T04:25:08;18.00;99.90
27900;DHT22;15243;50.726;7.080;2023-07-29T04:27:35;18.00;99.90
27900;DHT22;15243;50.726;7.080;2023-07-29T04:30:02;17.90;99.90
27900;DHT22;15243;50.726;7.080;2023-07-29T04:32:29;18.00;99.90
27900;DHT22;15243;50.726;7.080;2023-07-29T04:34:58;18.00;99.90
27900;DHT22;15243;50.726;7.080;2023-07-29T04:37:25;18.00;99.90
27900;DHT22;15243;50.726;7.080;2023-07-29T04:39:52;17.90;99.90
27900;DHT22;15243;50.726;7.080;2023-07-29T04:42:19;17.90;99.90
27900;DHT22;15243;50.726;7.080;2023-07-29T04:44:47;18.00;99.90
27900;DHT22;15243;50.726;7.080;2023-07-29T04:47:14;18.00;99.90
27900;DHT22;15243;50.726;7.080;2023-07-29T04:49:41;18.00;99.90
27900;DHT22;15243;50.726;7.080;2023-07-29T04:52:08;18.00;99.90
27900;DHT22;15243;50.726;7.080;2023-07-29T04:54:36;18.00;99.90
27900;DHT22;15243;50.726;7.080;2023-07-29T04:57:03;18.00;99.90
27900;DHT22;15243;50.726;7.080;2023-07-29T04:59:30;18.00;99.90
27900;DHT22;15243;50.726;7.080;2023-07-29T05:01:57;18.00;99.90
27900;DHT22;15243;50.726;7.080;2023-07-29T05:04:24;18.00;99.90
27900;DHT22;15243;50.726;7.080;2023-07-29T05:06:51;18.00;99.90
27900;DHT22;15243;50.726;7.080;2023-07-29T05:09:19;18.00;99.90
27900;DHT22;15243;50.726;7.080;2023-07-29T05:11:50;18.00;99.90
27900;DHT22;15243;50.726;7.080;2023-07-29T05:14:18;18.10;99.90
27900;DHT22;15243;50.726;7.080;2023-07-29T05:16:45;18.00;99.90
27900;DHT22;15243;50.726;7.080;2023-07-29T05:19:11;18.00;99.90
27900;DHT22;15243;50.726;7.080;2023-07-29T05:21:39;18.10;99.90
27900;DHT22;15243;50.726;7.080;2023-07-29T05:24:06;18.10;99.90
27900;DHT22;15243;50.726;7.080;2023-07-29T05:26:33;18.10;99.90
27900;DHT22;15243;50.726;7.080;2023-07-29T05:29:02;18.10;99.90
27900;DHT22;15243;50.726;7.080;2023-07-29T05:31:29;18.20;99.90
27900;DHT22;15243;50.726;7.080;2023-07-29T05:33:56;18.20;99.90
27900;DHT22;15243;50.726;7.080;2023-07-29T05:36:23;18.20;99.90
27900;DHT22;15243;50.726;7.080;2023-07-29T05:38:52;18.20;99.90
27900;DHT22;15243;50.726;7.080;2023-07-29T05:41:19;18.30;99.90
27900;DHT22;15243;50.726;7.080;2023-07-29T05:43:46;18.30;99.90
27900;DHT22;15243;50.726;7.080;2023-07-29T05:46:13;18.40;99.90
27900;DHT22;15243;50.726;7.080;2023-07-29T05:48:40;18.40;99.90
27900;DHT22;15243;50.726;7.080;2023-07-29T05:51:07;18.40;99.90
27900;DHT22;15243;50.726;7.080;2023-07-29T05:53:34;18.50;99.90
27900;DHT22;15243;50.726;7.080;2023-07-29T05:56:01;18.40;99.90
27900;DHT22;15243;50.726;7.080;2023-07-29T05:58:28;18.40;99.90
27900;DHT22;15243;50.726;7.080;2023-07-29T06:00:58;18.50;99.90
27900;DHT22;15243;50.726;7.080;2023-07-29T06:03:25;18.60;99.90
27900;DHT22;15243;50.726;7.080;2023-07-29T06:05:53;18.60;99.90
27900;DHT22;15243;50.726;7.080;2023-07-29T06:08:21;18.60;99.90
27900;DHT22;15243;50.726;7.080;2023-07-29T06:10:48;18.60;99.90
27900;DHT22;15243;50.726;7.080;2023-07-29T06:13:15;18.60;99.90
27900;DHT22;15243;50.726;7.080;2023-07-29T06:15:57;18.60;99.90
27900;DHT22;15243;50.726;7.080;2023-07-29T06:18:24;18.60;99.90
27900;DHT22;15243;50.726;7.080;2023-07-29T06:20:51;18.60;99.90
27900;DHT22;15243;50.726;7.080;2023-07-29T06:23:18;18.70;99.90
27900;DHT22;15243;50.726;7.080;2023-07-29T06:25:45;18.80;99.90
27900;DHT22;15243;50.726;7.080;2023-07-29T06:28:12;18.90;99.90
27900;DHT22;15243;50.726;7.080;2023-07-29T06:30:39;18.90;99.90
27900;DHT22;15243;50.726;7.080;2023-07-29T06:33:07;19.00;99.90
27900;DHT22;15243;50.726;7.080;2023-07-29T06:35:34;19.00;99.90
27900;DHT22;15243;50.726;7.080;2023-07-29T06:38:01;19.10;99.90
27900;DHT22;15243;50.726;7.080;2023-07-29T06:40:28;19.10;99.90
27900;DHT22;15243;50.726;7.080;2023-07-29T06:42:55;19.20;99.90
27900;DHT22;15243;50.726;7.080;2023-07-29T06:45:24;19.10;99.90
27900;DHT22;15243;50.726;7.080;2023-07-29T06:47:51;19.10;99.90
27900;DHT22;15243;50.726;7.080;2023-07-29T06:50:18;19.10;99.90
27900;DHT22;15243;50.726;7.080;2023-07-29T06:52:45;19.10;99.90
27900;DHT22;15243;50.726;7.080;2023-07-29T06:55:12;19.20;99.90
27900;DHT22;15243;50.726;7.080;2023-07-29T06:57:40;19.30;99.90
27900;DHT22;15243;50.726;7.080;2023-07-29T07:00:07;19.50;99.90
27900;DHT22;15243;50.726;7.080;2023-07-29T07:02:36;19.60;99.90
27900;DHT22;15243;50.726;7.080;2023-07-29T07:05:03;19.80;99.90
27900;DHT22;15243;50.726;7.080;2023-07-29T07:07:30;19.60;99.90
27900;DHT22;15243;50.726;7.080;2023-07-29T07:09:57;19.80;99.90
27900;DHT22;15243;50.726;7.080;2023-07-29T07:12:27;20.00;99.90
27900;DHT22;15243;50.726;7.080;2023-07-29T07:14:54;19.70;99.90
27900;DHT22;15243;50.726;7.080;2023-07-29T07:17:20;19.90;99.90
27900;DHT22;15243;50.726;7.080;2023-07-29T07:19:47;19.90;99.90
27900;DHT22;15243;50.726;7.080;2023-07-29T07:22:14;19.80;99.90
27900;DHT22;15243;50.726;7.080;2023-07-29T07:24:42;19.90;99.90
27900;DHT22;15243;50.726;7.080;2023-07-29T07:27:09;19.90;99.90
27900;DHT22;15243;50.726;7.080;2023-07-29T07:29:35;20.00;99.90
27900;DHT22;15243;50.726;7.080;2023-07-29T07:32:03;20.00;99.90
27900;DHT22;15243;50.726;7.080;2023-07-29T07:34:30;20.00;99.90
27900;DHT22;15243;50.726;7.080;2023-07-29T07:36:57;19.90;99.90
27900;DHT22;15243;50.726;7.080;2023-07-29T07:39:24;20.00;99.90
27900;DHT22;15243;50.726;7.080;2023-07-29T07:41:51;20.10;99.90
27900;DHT22;15243;50.726;7.080;2023-07-29T07:44:18;20.30;99.90
27900;DHT22;15243;50.726;7.080;2023-07-29T07:46:52;20.20;99.90
27900;DHT22;15243;50.726;7.080;2023-07-29T07:49:20;20.30;99.90
27900;DHT22;15243;50.726;7.080;2023-07-29T07:51:48;20.30;99.90
27900;DHT22;15243;50.726;7.080;2023-07-29T07:54:15;20.50;99.90
27900;DHT22;15243;50.726;7.080;2023-07-29T07:56:43;20.70;99.90
27900;DHT22;15243;50.726;7.080;2023-07-29T07:59:10;20.80;99.90
27900;DHT22;15243;50.726;7.080;2023-07-29T08:01:38;21.10;99.90
27900;DHT22;15243;50.726;7.080;2023-07-29T08:04:21;21.20;99.90
27900;DHT22;15243;50.726;7.080;2023-07-29T08:06:48;21.30;99.90
27900;DHT22;15243;50.726;7.080;2023-07-29T08:09:15;20.80;99.90
27900;DHT22;15243;50.726;7.080;2023-07-29T08:11:42;20.40;99.90
27900;DHT22;15243;50.726;7.080;2023-07-29T08:14:10;20.60;99.90
27900;DHT22;15243;50.726;7.080;2023-07-29T08:16:37;20.40;99.90
27900;DHT22;15243;50.726;7.080;2023-07-29T08:19:04;20.00;99.90
27900;DHT22;15243;50.726;7.080;2023-07-29T08:21:33;19.90;99.90
27900;DHT22;15243;50.726;7.080;2023-07-29T08:24:00;19.90;99.90
27900;DHT22;15243;50.726;7.080;2023-07-29T08:26:27;20.00;99.90
27900;DHT22;15243;50.726;7.080;2023-07-29T08:28:54;20.10;99.90
27900;DHT22;15243;50.726;7.080;2023-07-29T08:31:21;20.40;99.90
27900;DHT22;15243;50.726;7.080;2023-07-29T08:33:48;20.40;99.90
27900;DHT22;15243;50.726;7.080;2023-07-29T08:36:15;20.50;99.90
27900;DHT22;15243;50.726;7.080;2023-07-29T08:38:42;20.40;99.90
27900;DHT22;15243;50.726;7.080;2023-07-29T08:41:25;20.60;99.90
27900;DHT22;15243;50.726;7.080;2023-07-29T08:44:06;20.50;99.90
27900;DHT22;15243;50.726;7.080;2023-07-29T08:46:39;20.70;99.90
27900;DHT22;15243;50.726;7.080;2023-07-29T08:49:08;20.60;99.90
27900;DHT22;15243;50.726;7.080;2023-07-29T08:51:36;20.30;99.90
27900;DHT22;15243;50.726;7.080;2023-07-29T08:54:03;20.30;99.90
27900;DHT22;15243;50.726;7.080;2023-07-29T08:56:30;20.00;99.90
27900;DHT22;15243;50.726;7.080;2023-07-29T08:58:57;19.90;99.90
27900;DHT22;15243;50.726;7.080;2023-07-29T09:01:27;19.90;99.90
27900;DHT22;15243;50.726;7.080;2023-07-29T09:03:54;19.80;99.90
27900;DHT22;15243;50.726;7.080;2023-07-29T09:06:23;19.80;99.90
27900;DHT22;15243;50.726;7.080;2023-07-29T09:08:53;19.70;99.90
27900;DHT22;15243;50.726;7.080;2023-07-29T09:11:21;19.80;99.90
27900;DHT22;15243;50.726;7.080;2023-07-29T09:13:48;19.90;99.90
27900;DHT22;15243;50.726;7.080;2023-07-29T09:16:15;20.10;99.90
27900;DHT22;15243;50.726;7.080;2023-07-29T09:18:42;20.10;99.90
27900;DHT22;15243;50.726;7.080;2023-07-29T09:21:09;20.10;99.90
27900;DHT22;15243;50.726;7.080;2023-07-29T09:23:42;19.90;99.90
27900;DHT22;15243;50.726;7.080;2023-07-29T09:26:11;19.90;99.90
27900;DHT22;15243;50.726;7.080;2023-07-29T09:28:39;20.00;99.90
27900;DHT22;15243;50.726;7.080;2023-07-29T09:31:06;20.10;99.90
27900;DHT22;15243;50.726;7.080;2023-07-29T09:33:35;20.00;99.90
27900;DHT22;15243;50.726;7.080;2023-07-29T09:36:09;20.10;99.90
27900;DHT22;15243;50.726;7.080;2023-07-29T09:38:37;20.10;99.90
27900;DHT22;15243;50.726;7.080;2023-07-29T09:41:04;20.20;99.90
27900;DHT22;15243;50.726;7.080;2023-07-29T09:43:33;20.10;99.90
27900;DHT22;15243;50.726;7.080;2023-07-29T09:46:04;20.00;99.90
27900;DHT22;15243;50.726;7.080;2023-07-29T09:48:36;20.40;99.90
27900;DHT22;15243;50.726;7.080;2023-07-29T09:51:13;20.40;99.90
27900;DHT22;15243;50.726;7.080;2023-07-29T09:53:45;20.30;99.90
27900;DHT22;15243;50.726;7.080;2023-07-29T09:56:14;20.40;99.90
27900;DHT22;15243;50.726;7.080;2023-07-29T09:58:45;20.10;99.90
27900;DHT22;15243;50.726;7.080;2023-07-29T10:01:14;20.20;99.90
27900;DHT22;15243;50.726;7.080;2023-07-29T10:03:42;20.00;99.90
27900;DHT22;15243;50.726;7.080;2023-07-29T10:06:12;19.90;99.90
27900;DHT22;15243;50.726;7.080;2023-07-29T10:08:40;20.00;99.90
27900;DHT22;15243;50.726;7.080;2023-07-29T10:11:10;20.30;99.90
27900;DHT22;15243;50.726;7.080;2023-07-29T10:13:38;20.30;99.90
27900;DHT22;15243;50.726;7.080;2023-07-29T10:16:05;20.20;99.90
27900;DHT22;15243;50.726;7.080;2023-07-29T10:18:33;20.20;99.90
27900;DHT22;15243;50.726;7.080;2023-07-29T10:21:02;20.10;99.90
27900;DHT22;15243;50.726;7.080;2023-07-29T10:23:34;20.30;99.90
27900;DHT22;15243;50.726;7.080;2023-07-29T10:26:05;20.20;99.90
27900;DHT22;15243;50.726;7.080;2023-07-29T10:28:40;20.10;99.90
27900;DHT22;15243;50.726;7.080;2023-07-29T10:31:07;20.20;99.90
27900;DHT22;15243;50.726;7.080;2023-07-29T10:33:34;20.20;99.90
27900;DHT22;15243;50.726;7.080;2023-07-29T10:36:03;19.80;99.90
27900;DHT22;15243;50.726;7.080;2023-07-29T10:38:30;19.80;99.90
27900;DHT22;15243;50.726;7.080;2023-07-29T10:40:58;19.80;99.90
27900;DHT22;15243;50.726;7.080;2023-07-29T10:43:33;19.90;99.90
27900;DHT22;15243;50.726;7.080;2023-07-29T10:46:23;19.80;99.90
27900;DHT22;15243;50.726;7.080;2023-07-29T10:51:35;19.60;99.90
27900;DHT22;15243;50.726;7.080;2023-07-29T10:54:11;19.50;99.90
27900;DHT22;15243;50.726;7.080;2023-07-29T10:56:51;19.50;99.90
27900;DHT22;15243;50.726;7.080;2023-07-29T11:01:57;19.50;99.90
27900;DHT22;15243;50.726;7.080;2023-07-29T11:04:28;19.40;99.90
27900;DHT22;15243;50.726;7.080;2023-07-29T11:09:52;19.30;99.90
27900;DHT22;15243;50.726;7.080;2023-07-29T11:20:08;20.40;99.90
27900;DHT22;15243;50.726;7.080;2023-07-29T11:22:36;20.70;99.90
27900;DHT22;15243;50.726;7.080;2023-07-29T11:25:04;20.60;99.90
27900;DHT22;15243;50.726;7.080;2023-07-29T11:27:32;20.60;99.90
27900;DHT22;15243;50.726;7.080;2023-07-29T11:30:00;20.30;99.90
27900;DHT22;15243;50.726;7.080;2023-07-29T11:32:28;20.40;99.90
27900;DHT22;15243;50.726;7.080;2023-07-29T11:34:55;20.30;99.90
27900;DHT22;15243;50.726;7.080;2023-07-29T11:37:22;20.40;99.90
27900;DHT22;15243;50.726;7.080;2023-07-29T11:39:49;20.40;99.90
27900;DHT22;15243;50.726;7.080;2023-07-29T11:42:16;20.60;99.90
27900;DHT22;15243;50.726;7.080;2023-07-29T11:44:43;20.60;99.90
27900;DHT22;15243;50.726;7.080;2023-07-29T11:47:11;20.60;99.90
27900;DHT22;15243;50.726;7.080;2023-07-29T11:49:40;20.80;99.90
27900;DHT22;15243;50.726;7.080;2023-07-29T11:52:09;20.70;99.90
27900;DHT22;15243;50.726;7.080;2023-07-29T11:54:38;20.80;99.90
27900;DHT22;15243;50.726;7.080;2023-07-29T11:57:09;21.00;99.90
27900;DHT22;15243;50.726;7.080;2023-07-29T11:59:37;21.20;99.90
27900;DHT22;15243;50.726;7.080;2023-07-29T12:02:08;21.30;99.90
27900;DHT22;15243;50.726;7.080;2023-07-29T12:04:37;21.40;99.90
27900;DHT22;15243;50.726;7.080;2023-07-29T12:07:05;21.90;99.90
27900;DHT22;15243;50.726;7.080;2023-07-29T12:09:36;21.70;99.90
27900;DHT22;15243;50.726;7.080;2023-07-29T12:12:04;21.90;99.90
27900;DHT22;15243;50.726;7.080;2023-07-29T12:14:33;21.80;99.90
27900;DHT22;15243;50.726;7.080;2023-07-29T12:17:01;22.40;99.90
27900;DHT22;15243;50.726;7.080;2023-07-29T12:19:37;22.40;99.90
27900;DHT22;15243;50.726;7.080;2023-07-29T12:22:06;22.50;99.90
27900;DHT22;15243;50.726;7.080;2023-07-29T12:24:36;22.20;99.90
27900;DHT22;15243;50.726;7.080;2023-07-29T12:27:03;22.40;99.90
27900;DHT22;15243;50.726;7.080;2023-07-29T12:29:30;22.40;99.90
27900;DHT22;15243;50.726;7.080;2023-07-29T12:32:02;22.50;99.90
27900;DHT22;15243;50.726;7.080;2023-07-29T12:34:31;22.90;99.90
27900;DHT22;15243;50.726;7.080;2023-07-29T12:36:59;22.90;99.90
27900;DHT22;15243;50.726;7.080;2023-07-29T12:39:31;23.10;99.90
27900;DHT22;15243;50.726;7.080;2023-07-29T12:42:00;23.50;99.90
27900;DHT22;15243;50.726;7.080;2023-07-29T12:44:32;23.80;99.90
27900;DHT22;15243;50.726;7.080;2023-07-29T12:47:01;23.30;99.90
27900;DHT22;15243;50.726;7.080;2023-07-29T12:49:30;23.20;99.90
27900;DHT22;15243;50.726;7.080;2023-07-29T12:51:58;23.60;99.90
27900;DHT22;15243;50.726;7.080;2023-07-29T12:54:26;23.70;99.90
27900;DHT22;15243;50.726;7.080;2023-07-29T12:56:53;23.70;99.90
27900;DHT22;15243;50.726;7.080;2023-07-29T12:59:20;23.90;99.50
27900;DHT22;15243;50.726;7.080;2023-07-29T13:01:47;24.20;99.90
27900;DHT22;15243;50.726;7.080;2023-07-29T13:04:15;24.70;99.90
27900;DHT22;15243;50.726;7.080;2023-07-29T13:06:42;25.10;66.80
27900;DHT22;15243;50.726;7.080;2023-07-29T13:09:09;24.80;10.60
27900;DHT22;15243;50.726;7.080;2023-07-29T13:11:36;24.10;18.40
27900;DHT22;15243;50.726;7.080;2023-07-29T13:14:03;23.50;45.20
27900;DHT22;15243;50.726;7.080;2023-07-29T13:16:30;23.60;67.60
27900;DHT22;15243;50.726;7.080;2023-07-29T13:18:57;23.50;95.40
27900;DHT22;15243;50.726;7.080;2023-07-29T13:21:24;23.40;99.90
27900;DHT22;15243;50.726;7.080;2023-07-29T13:23:52;23.20;99.90
27900;DHT22;15243;50.726;7.080;2023-07-29T13:26:19;23.10;99.90
27900;DHT22;15243;50.726;7.080;2023-07-29T13:28:46;23.10;99.90
27900;DHT22;15243;50.726;7.080;2023-07-29T13:31:13;22.90;99.90
27900;DHT22;15243;50.726;7.080;2023-07-29T13:33:41;22.60;99.90
27900;DHT22;15243;50.726;7.080;2023-07-29T13:36:08;22.60;99.90
27900;DHT22;15243;50.726;7.080;2023-07-29T13:38:35;22.60;99.90
27900;DHT22;15243;50.726;7.080;2023-07-29T13:41:03;22.60;99.90
27900;DHT22;15243;50.726;7.080;2023-07-29T13:43:30;22.40;99.90
27900;DHT22;15243;50.726;7.080;2023-07-29T13:45:57;22.60;99.90
27900;DHT22;15243;50.726;7.080;2023-07-29T13:48:24;22.70;99.90
27900;DHT22;15243;50.726;7.080;2023-07-29T13:50:51;23.30;99.90
27900;DHT22;15243;50.726;7.080;2023-07-29T13:53:19;23.20;99.90
27900;DHT22;15243;50.726;7.080;2023-07-29T13:55:45;23.00;99.90
27900;DHT22;15243;50.726;7.080;2023-07-29T13:58:13;23.00;99.90
27900;DHT22;15243;50.726;7.080;2023-07-29T14:00:40;22.60;99.90
27900;DHT22;15243;50.726;7.080;2023-07-29T14:03:07;22.50;99.90
27900;DHT22;15243;50.726;7.080;2023-07-29T14:05:34;22.40;99.90
27900;DHT22;15243;50.726;7.080;2023-07-29T14:08:00;22.10;99.90
27900;DHT22;15243;50.726;7.080;2023-07-29T14:10:27;22.00;99.90
27900;DHT22;15243;50.726;7.080;2023-07-29T14:12:54;22.00;99.90
27900;DHT22;15243;50.726;7.080;2023-07-29T14:15:21;21.90;99.90
27900;DHT22;15243;50.726;7.080;2023-07-29T14:17:48;22.00;99.90
27900;DHT22;15243;50.726;7.080;2023-07-29T14:20:16;22.00;99.90
27900;DHT22;15243;50.726;7.080;2023-07-29T14:22:44;21.90;99.90
27900;DHT22;15243;50.726;7.080;2023-07-29T14:25:11;21.70;99.90
27900;DHT22;15243;50.726;7.080;2023-07-29T14:27:39;21.80;99.90
27900;DHT22;15243;50.726;7.080;2023-07-29T14:30:06;21.80;99.90
27900;DHT22;15243;50.726;7.080;2023-07-29T14:32:33;22.10;99.90
27900;DHT22;15243;50.726;7.080;2023-07-29T14:35:00;22.30;99.90
27900;DHT22;15243;50.726;7.080;2023-07-29T14:37:31;22.30;99.90
27900;DHT22;15243;50.726;7.080;2023-07-29T14:40:00;22.20;99.90
27900;DHT22;15243;50.726;7.080;2023-07-29T14:42:27;22.00;99.90
27900;DHT22;15243;50.726;7.080;2023-07-29T14:44:55;22.00;99.90
27900;DHT22;15243;50.726;7.080;2023-07-29T14:47:22;22.00;99.90
27900;DHT22;15243;50.726;7.080;2023-07-29T14:49:49;21.90;99.90
27900;DHT22;15243;50.726;7.080;2023-07-29T14:52:16;21.60;99.90
27900;DHT22;15243;50.726;7.080;2023-07-29T14:54:43;21.30;99.90
27900;DHT22;15243;50.726;7.080;2023-07-29T14:57:10;21.20;99.90
27900;DHT22;15243;50.726;7.080;2023-07-29T14:59:38;21.30;99.90
27900;DHT22;15243;50.726;7.080;2023-07-29T15:02:06;21.30;99.90
27900;DHT22;15243;50.726;7.080;2023-07-29T15:04:33;21.00;99.90
27900;DHT22;15243;50.726;7.080;2023-07-29T15:07:00;20.80;99.90
27900;DHT22;15243;50.726;7.080;2023-07-29T15:09:27;20.70;99.90
27900;DHT22;15243;50.726;7.080;2023-07-29T15:11:54;20.80;99.90
27900;DHT22;15243;50.726;7.080;2023-07-29T15:14:24;20.80;99.90
27900;DHT22;15243;50.726;7.080;2023-07-29T15:16:51;20.90;99.90
27900;DHT22;15243;50.726;7.080;2023-07-29T15:19:18;20.90;99.90
27900;DHT22;15243;50.726;7.080;2023-07-29T15:21:45;20.60;99.90
27900;DHT22;15243;50.726;7.080;2023-07-29T15:24:13;20.60;99.90
27900;DHT22;15243;50.726;7.080;2023-07-29T15:26:40;20.70;99.90
27900;DHT22;15243;50.726;7.080;2023-07-29T15:29:08;20.80;99.90
27900;DHT22;15243;50.726;7.080;2023-07-29T15:31:36;20.80;99.90
27900;DHT22;15243;50.726;7.080;2023-07-29T15:34:03;20.80;99.90
27900;DHT22;15243;50.726;7.080;2023-07-29T15:36:30;20.60;99.90
27900;DHT22;15243;50.726;7.080;2023-07-29T15:38:57;20.60;99.90
27900;DHT22;15243;50.726;7.080;2023-07-29T15:41:24;20.50;99.90
27900;DHT22;15243;50.726;7.080;2023-07-29T15:43:51;20.40;99.90
27900;DHT22;15243;50.726;7.080;2023-07-29T15:46:18;20.30;99.90
27900;DHT22;15243;50.726;7.080;2023-07-29T15:48:46;20.20;99.90
27900;DHT22;15243;50.726;7.080;2023-07-29T15:51:13;20.30;99.90
27900;DHT22;15243;50.726;7.080;2023-07-29T15:53:40;20.20;99.90
27900;DHT22;15243;50.726;7.080;2023-07-29T15:56:07;19.90;99.90
27900;DHT22;15243;50.726;7.080;2023-07-29T15:58:34;19.90;99.90
27900;DHT22;15243;50.726;7.080;2023-07-29T16:01:01;19.80;99.90
27900;DHT22;15243;50.726;7.080;2023-07-29T16:03:27;19.60;99.90